El Paso, Texas
Current Conditions -  °F | °C
As of 1:51 AM on Friday 24 Oct 2014 (Local Time) from KELP Reporting Station
Clear Clear  
Wind Chill: 15°   Ceiling: Unl
Heat Index: 15°   Visibility: 10mi
Dew Point: 12°   Wind: 6mph
Humidity: 81%   Direction: 100°E
Pressure: 30.18"   Gusts: NA
Location:  31.76°N, 106.48°W
Report Text: KELP 240751Z 10005KT 10SM CLR 15/12 A3018 RMK AO2 SLP165 T01500117
Loading
Personal Weather Stations






























Interactive Weather Map
Tropical Storm Tracking
New forecast layout! Learn more

10-Day Weather Forecast

Advertisements
Track Severe Weather on mobile